Latest Weather Observations for Flinders Reef

IDQ60801

Issued at 5:32 am EST Wednesday 7 December 2016 (issued every 30 minutes, with the page automatically refreshed every 10 minutes)

About weather observations | Map of weather stations | Latest weather observations for QLD | Other Formats
Station Details ID: 200783 Name: FLINDERS REEF Lat: -17.72 Lon: 148.45 Height: 2.6 m
Data from the previous 72 hours. | See also: Recent months at Flinders Reef
Date/Time
EST
Temp
°C
App
Temp
°C
Dew
Point
°C
Rel
Hum
%
Delta-T
°C
Wind Press
QNH
hPa
Press
MSL
hPa
Rain since
9am
mm
Dir  Spd
km/h
Gust
km/h
Spd
kts
Gust
kts
07/05:30am 26.2 - - - - E 33 39 18 21 1010.7 - -
07/05:24am 26.6 - - - - ESE 30 39 16 21 1010.5 1010.4 -
07/05:00am 26.3 - - - - E 28 33 15 18 1010.4 - -
07/04:30am 26.6 - - - - ESE 26 30 14 16 1010.2 - -
07/04:24am 26.6 - - - - ESE 24 - 13 - - 1010.1 -
07/04:00am 26.6 - - - - ESE 24 28 13 15 1010.0 - -
07/03:30am 26.4 - - - - ESE 24 28 13 15 1010.0 - -
07/03:24am 26.2 - - - - ESE 24 - 13 - - 1009.8 -
07/03:00am 26.4 - - - - E 26 30 14 16 1009.9 - -
07/02:30am 26.7 - - - - E 28 32 15 17 1009.7 - -
07/02:24am 26.5 - - - - E 28 - 15 - - 1009.6 -
07/02:00am 26.6 - - - - E 30 35 16 19 1009.8 - -
07/01:30am 26.5 - - - - ESE 28 32 15 17 1010.1 - -
07/01:24am 26.7 - - - - ESE 26 - 14 - - 1010.1 -
07/01:00am 26.5 - - - - E 22 26 12 14 1010.6 - -
07/12:30am 26.5 - - - - E 22 28 12 15 1011.1 - -
07/12:24am 26.7 - - - - E 22 - 12 - - 1011.1 -
07/12:00am 26.3 - - - - E 24 28 13 15 1011.4 - -
 
Date/Time
EST
Temp
°C
App
Temp
°C
Dew
Point
°C
Rel
Hum
%
Delta-T
°C
Wind Press
QNH
hPa
Press
MSL
hPa
Rain since
9am
mm
Dir  Spd
km/h
Gust
km/h
Spd
kts
Gust
kts
06/11:30pm 26.6 - - - - E 24 30 13 16 1011.9 - -
06/11:24pm 26.4 - - - - E 26 - 14 - - 1011.9 -
06/11:00pm 26.4 - - - - E 24 28 13 15 1012.1 - -
06/10:30pm 26.4 - - - - E 26 32 14 17 1012.3 - -
06/10:24pm 26.3 - - - - E 26 - 14 - - 1012.1 -
06/10:00pm 26.3 - - - - ESE 28 33 15 18 1012.1 - -
06/09:30pm 26.3 - - - - ESE 32 35 17 19 1011.8 - -
06/09:24pm 26.6 - - - - ESE 32 - 17 - - 1011.6 -
06/09:00pm 26.4 - - - - ESE 35 41 19 22 1011.6 - -
06/08:30pm 26.6 - - - - ESE 33 39 18 21 1011.6 - -
06/08:24pm 26.4 - - - - ESE 33 - 18 - - 1011.5 -
06/08:00pm 27.0 - - - - ESE 33 39 18 21 1011.7 - -
06/07:30pm 27.0 - - - - ESE 35 41 19 22 1011.6 - -
06/07:24pm 26.7 - - - - ESE 35 - 19 - - 1011.6 -
06/07:00pm 26.9 - - - - ESE 32 41 17 22 1011.8 - -
06/06:30pm 26.9 - - - - SE 32 37 17 20 1011.6 - -
06/06:24pm 27.0 - - - - SE 30 - 16 - - 1011.5 -
06/06:00pm 26.9 - - - - SE 32 37 17 20 1011.6 - -
06/05:30pm 27.1 - - - - SE 33 39 18 21 1011.4 - -
06/05:24pm 27.3 - - - - SE 33 - 18 - - 1011.2 -
06/05:00pm 27.1 - - - - SE 30 35 16 19 1011.2 - -
06/04:30pm 27.0 - - - - ESE 30 37 16 20 1011.0 - -
06/04:24pm 27.0 - - - - ESE 30 - 16 - - 1010.8 -
06/04:00pm 27.1 - - - - SE 26 32 14 17 1011.1 - -
06/03:30pm 26.9 - - - - SE 26 30 14 16 1011.2 - -
06/03:24pm 27.0 - - - - SE 26 - 14 - - 1011.2 -
06/03:00pm 26.9 - - - - SE 26 30 14 16 1011.3 - -
06/02:30pm 27.0 - - - - ESE 24 28 13 15 1011.6 - -
06/02:24pm 27.3 - - - - ESE 24 - 13 - - 1011.6 -
06/02:00pm 26.9 - - - - SE 22 28 12 15 1012.0 - -
06/01:30pm 27.0 - - - - SE 20 26 11 14 1012.2 - -
06/01:24pm 27.0 - - - - SE 20 - 11 - - 1012.2 -
06/01:00pm 27.2 - - - - SE 20 24 11 13 1012.7 - -
06/12:30pm 26.9 - - - - SE 22 26 12 14 1012.9 - -
06/12:24pm 27.1 - - - - SE 22 - 12 - - 1012.7 -
06/12:00pm 27.0 - - - - SE 22 28 12 15 1013.2 - -
06/11:30am 27.0 - - - - ESE 24 28 13 15 1013.6 - -
06/11:24am 27.2 - - - - ESE 26 - 14 - - 1013.6 -
06/11:00am 27.2 - - - - ESE 24 28 13 15 1013.9 - -
06/10:30am 26.9 - - - - E 26 28 14 15 1014.2 - -
06/10:24am 27.2 - - - - ESE 26 - 14 - - 1014.1 -
06/10:00am 27.0 - - - - E 26 30 14 16 1014.3 - -
06/09:30am 26.9 - - - - ESE 22 28 12 15 1014.5 - -
06/09:24am 27.2 - - - - ESE 22 - 12 - - 1014.4 -
06/09:00am 27.2 - - - - ESE 22 26 12 14 1014.6 - -
06/08:30am 27.2 - - - - E 20 24 11 13 1014.6 - -
06/08:24am 26.9 - - - - E 20 - 11 - - 1014.4 -
06/08:00am 27.0 - - - - ESE 22 26 12 14 1014.5 - -
06/07:30am 27.2 - - - - E 24 30 13 16 1014.2 - -
06/07:24am 26.9 - - - - E 24 - 13 - - 1014.0 -
06/07:00am 26.9 - - - - E 26 30 14 16 1013.9 - -
06/06:30am 26.8 - - - - E 30 35 16 19 1013.7 - -
06/06:24am 26.6 - - - - E 28 - 15 - - 1013.6 -
06/06:00am 26.2 - - - - E 30 33 16 18 1013.4 - -
06/05:30am 26.4 - - - - E 30 35 16 19 1013.0 - -
06/05:24am 26.4 - - - - E 24 - 13 - - 1012.8 -
06/05:00am 26.4 - - - - E 24 30 13 16 1012.6 - -
06/04:30am 26.0 - - - - E 30 35 16 19 1012.1 - -
06/04:24am 26.3 - - - - E 30 - 16 - - 1011.9 -
06/04:00am 26.5 - - - - E 28 37 15 20 1011.6 - -
06/03:30am 26.7 - - - - E 28 32 15 17 1011.7 - -
06/03:24am 26.3 - - - - E 28 - 15 - - 1011.5 -
06/03:00am 26.5 - - - - E 28 33 15 18 1011.6 - -
06/02:30am 26.2 - - - - E 32 35 17 19 1011.3 - -
06/02:24am 26.5 - - - - E 30 - 16 - - 1011.3 -
06/02:00am 26.5 - - - - E 30 33 16 18 1011.6 - -
06/01:30am 26.3 - - - - E 32 35 17 19 1011.8 - -
06/01:24am 26.6 - - - - E 32 - 17 - - 1011.7 -
06/01:00am 26.3 - - - - E 30 35 16 19 1011.9 - -
06/12:30am 26.4 - - - - E 32 35 17 19 1012.1 - -
06/12:24am 26.3 - - - - E 32 - 17 - - 1012.1 -
06/12:00am 26.6 - - - - E 33 37 18 20 1012.5 - -
 
Date/Time
EST
Temp
°C
App
Temp
°C
Dew
Point
°C
Rel
Hum
%
Delta-T
°C
Wind Press
QNH
hPa
Press
MSL
hPa
Rain since
9am
mm
Dir  Spd
km/h
Gust
km/h
Spd
kts
Gust
kts
05/11:30pm 26.6 - - - - E 30 33 16 18 1012.9 - -
05/11:24pm 26.6 - - - - E 30 - 16 - - 1012.8 -
05/11:00pm 26.3 - - - - E 32 35 17 19 1013.0 - -
05/10:30pm 26.5 - - - - E 32 35 17 19 1013.2 - -
05/10:24pm 26.8 - - - - E 30 - 16 - - 1013.1 -
05/10:00pm 26.5 - - - - E 32 35 17 19 1013.2 - -
05/09:30pm 26.9 - - - - E 30 35 16 19 1013.3 - -
05/09:24pm 26.7 - - - - E 32 - 17 - - 1013.2 -
05/09:00pm 26.5 - - - - E 32 35 17 19 1013.1 - -
05/08:30pm 26.7 - - - - ESE 30 33 16 18 1013.1 - -
05/08:24pm 27.0 - - - - ESE 28 - 15 - - 1013.0 -
05/08:00pm 27.3 - - - - ESE 30 35 16 19 1013.1 - -
05/07:30pm 26.9 - - - - ESE 26 32 14 17 1013.0 - -
05/07:24pm 26.7 - - - - ESE 28 - 15 - - 1012.8 -
05/07:00pm 26.7 - - - - ESE 26 32 14 17 1012.7 - -
05/06:30pm 27.1 - - - - ESE 26 32 14 17 1012.5 - -
05/06:24pm 26.8 - - - - ESE 28 - 15 - - 1012.4 -
05/06:00pm 26.9 - - - - ESE 28 33 15 18 1012.4 - -
05/05:30pm 26.9 - - - - ESE 24 30 13 16 1012.1 - -
05/05:24pm 27.2 - - - - ESE 26 - 14 - - 1011.9 -
05/05:00pm 27.1 - - - - ESE 26 32 14 17 1011.8 - -
05/04:30pm 26.9 - - - - ESE 26 30 14 16 1011.7 - -
05/04:24pm 27.1 - - - - ESE 24 - 13 - - 1011.6 -
05/04:00pm 27.2 - - - - ESE 26 30 14 16 1011.6 - -
05/03:30pm 27.1 - - - - ESE 26 30 14 16 1011.8 - -
05/03:24pm 27.1 - - - - ESE 26 - 14 - - 1011.7 -
05/03:00pm 27.0 - - - - ESE 24 26 13 14 1012.0 - -
05/02:30pm 27.0 - - - - ESE 26 30 14 16 1012.1 - -
05/02:24pm 27.0 - - - - ESE 26 - 14 - - 1012.1 -
05/02:00pm 27.0 - - - - ESE 26 30 14 16 1012.4 - -
05/01:30pm 27.3 - - - - ESE 22 28 12 15 1012.7 - -
05/01:24pm 27.2 - - - - ESE 22 - 12 - - 1012.6 -
05/01:00pm 27.3 - - - - ESE 24 28 13 15 1012.8 - -
05/12:30pm 27.2 - - - - ESE 24 28 13 15 1013.1 - -
05/12:24pm 27.4 - - - - ESE 24 - 13 - - 1013.1 -
05/12:00pm 27.1 - - - - ESE 24 30 13 16 1013.5 - -
05/11:30am 27.2 - - - - E 26 30 14 16 1013.9 - -
05/11:24am 26.9 - - - - E 28 - 15 - - 1013.8 -
05/11:00am 27.2 - - - - ESE 24 26 13 14 1014.1 - -
05/10:30am 27.3 - - - - E 24 28 13 15 1014.3 - -
05/10:24am 27.2 - - - - E 24 - 13 - - 1014.2 -
05/10:00am 27.2 - - - - E 26 32 14 17 1014.4 - -
05/09:30am 26.8 - - - - E 30 33 16 18 1014.5 - -
05/09:24am 26.9 - - - - ESE 28 - 15 - - 1014.5 -
05/09:00am 27.2 - - - - E 26 28 14 15 1014.6 - -
05/08:30am 26.9 - - - - E 28 33 15 18 1014.5 - -
05/08:24am 26.9 - - - - E 28 - 15 - - 1014.4 -
05/08:00am 27.0 - - - - E 26 32 14 17 1014.5 - -
05/07:30am 26.9 - - - - E 28 33 15 18 1014.4 - -
05/07:24am 27.1 - - - - E 28 - 15 - - 1014.2 -
05/07:00am 26.8 - - - - E 26 32 14 17 1014.2 - -
05/06:30am 26.7 - - - - E 30 35 16 19 1013.9 - -
05/06:24am 26.5 - - - - E 30 - 16 - - 1013.7 -
05/06:00am 26.4 - - - - E 32 35 17 19 1013.5 - -
05/05:30am 26.3 - - - - E 30 35 16 19 1013.1 - -
05/05:24am 26.5 - - - - E 32 - 17 - - 1012.9 -
05/05:00am 26.6 - - - - E 32 35 17 19 1012.8 - -
05/04:30am 26.3 - - - - E 32 39 17 21 1012.6 - -
05/04:24am 26.5 - - - - E 32 - 17 - - 1012.4 -
05/04:00am 26.4 - - - - E 30 35 16 19 1012.3 - -
05/03:30am 26.4 - - - - E 32 39 17 21 1012.0 - -
05/03:24am 26.4 - - - - E 32 - 17 - - 1012.0 -
05/03:00am 26.6 - - - - E 30 35 16 19 1012.0 - -
05/02:30am 26.3 - - - - E 28 35 15 19 1012.0 - -
05/02:24am 26.3 - - - - E 30 - 16 - - 1012.0 -
05/02:00am 26.3 - - - - E 30 35 16 19 1012.3 - -
05/01:30am 26.9 - - - - E 30 37 16 20 1012.5 - -
05/01:24am 26.5 - - - - E 32 - 17 - - 1012.4 -
05/01:00am 26.8 - - - - E 30 35 16 19 1012.8 - -
05/12:30am 26.7 - - - - E 28 32 15 17 1013.2 - -
05/12:24am 26.4 - - - - E 30 - 16 - - 1013.2 -
05/12:00am 26.6 - - - - E 28 35 15 19 1013.6 - -
 
Date/Time
EST
Temp
°C
App
Temp
°C
Dew
Point
°C
Rel
Hum
%
Delta-T
°C
Wind Press
QNH
hPa
Press
MSL
hPa
Rain since
9am
mm
Dir  Spd
km/h
Gust
km/h
Spd
kts
Gust
kts
04/11:30pm 27.0 - - - - E 28 33 15 18 1013.8 - -
04/11:24pm 26.9 - - - - E 28 - 15 - - 1013.7 -
04/11:00pm 26.5 - - - - E 28 35 15 19 1013.8 - -
04/10:30pm 26.9 - - - - E 30 33 16 18 1013.8 - -
04/10:24pm 26.7 - - - - E 28 - 15 - - 1013.7 -
04/10:00pm 26.9 - - - - E 28 32 15 17 1013.6 - -
04/09:30pm 26.8 - - - - E 26 30 14 16 1013.4 - -
04/09:24pm 26.9 - - - - E 26 - 14 - - 1013.3 -
04/09:00pm 26.4 - - - - E 28 33 15 18 1013.2 - -
04/08:30pm 26.7 - - - - E 26 32 14 17 1013.1 - -
04/08:24pm 26.7 - - - - E 26 - 14 - - 1013.0 -
04/08:00pm 26.9 - - - - E 24 28 13 15 1013.1 - -
04/07:30pm 27.1 - - - - E 26 32 14 17 1012.9 - -
04/07:24pm 26.7 - - - - ESE 28 - 15 - - 1012.7 -
04/07:00pm 26.8 - - - - ESE 26 30 14 16 1012.8 - -
04/06:30pm 26.9 - - - - ESE 28 32 15 17 1012.6 - -
04/06:24pm 26.7 - - - - ESE 28 - 15 - - 1012.5 -
04/06:00pm 27.1 - - - - ESE 26 30 14 16 1012.6 - -
04/05:30pm 27.0 - - - - SE 26 30 14 16 1012.4 - -
04/05:24pm 27.2 - - - - SE 24 - 13 - - 1012.3 -
04/05:00pm 27.1 - - - - ESE 24 28 13 15 1012.2 - -
04/04:30pm 27.4 - - - - ESE 24 28 13 15 1012.1 - -
04/04:24pm 27.0 - - - - ESE 24 - 13 - - 1011.9 -
04/04:00pm 27.3 - - - - ESE 22 26 12 14 1012.0 - -
04/03:30pm 27.5 - - - - SE 22 26 12 14 1011.9 - -
04/03:24pm 27.1 - - - - SE 22 - 12 - - 1011.9 -
04/03:00pm 27.3 - - - - ESE 20 26 11 14 1012.1 - -
04/02:30pm 27.2 - - - - ESE 22 26 12 14 1012.2 - -
04/02:24pm 27.2 - - - - ESE 22 - 12 - - 1012.2 -
04/02:00pm 27.2 - - - - ESE 20 26 11 14 1012.4 - -
04/01:30pm 27.2 - - - - E 19 24 10 13 1012.7 - -
04/01:24pm 27.2 - - - - E 19 - 10 - - 1012.6 -
04/01:00pm 27.7 - - - - E 17 20 9 11 1012.6 - -
04/12:30pm 27.7 - - - - E 19 22 10 12 1012.9 - -
04/12:24pm 27.7 - - - - E 20 - 11 - - 1012.9 -
04/12:00pm 27.8 - - - - E 20 24 11 13 1013.4 - -
04/11:30am 27.5 - - - - E 24 28 13 15 1014.1 - -
04/11:24am 27.4 - - - - E 22 - 12 - - 1014.0 -
04/11:00am 27.7 - - - - E 24 30 13 16 1014.3 - -
04/10:30am 27.4 - - - - E 26 30 14 16 1014.7 - -
04/10:24am 27.6 - - - - E 26 - 14 - - 1014.7 -
04/10:00am 27.2 - - - - E 30 35 16 19 1015.0 - -
04/09:30am 27.1 - - - - E 35 39 19 21 1015.3 - -
04/09:24am 27.3 - - - - ESE 33 - 18 - - 1015.2 -
04/09:00am 27.0 - - - - E 32 35 17 19 1015.4 - -
04/08:30am 27.1 - - - - E 28 35 15 19 1014.9 - -
04/08:24am 27.4 - - - - E 28 - 15 - - 1014.4 -
04/08:00am 27.5 - - - - E 30 35 16 19 1014.9 - -
04/07:30am 27.2 - - - - E 30 33 16 18 1014.3 - -
04/07:24am 27.3 - - - - E 30 - 16 - - 1014.2 -
04/07:00am 27.1 - - - - E 28 33 15 18 1014.2 - -
04/06:30am 27.2 - - - - E 30 33 16 18 1014.0 - -
04/06:24am 26.8 - - - - E 30 - 16 - - 1013.9 -
04/06:00am 26.7 - - - - E 30 35 16 19 1013.9 - -

Other Formats:

Comma delimited format used in spreadsheet applications
http://www.bom.gov.au/fwo/IDQ60801/IDQ60801.94290.axf

JavaScript Object Notation format (JSON) in row-major order
http://www.bom.gov.au/fwo/IDQ60801/IDQ60801.94290.json